createdAt,value
2023-02-18T00:01:45.718Z,-10920.59
2023-02-18T00:04:52.046Z,-10916.13
2023-02-18T00:07:59.974Z,-10914.28
2023-02-18T00:11:06.937Z,-10900.16
2023-02-18T00:14:15.698Z,-10883.91
2023-02-18T00:17:21.783Z,-10895.97
2023-02-18T00:20:28.290Z,-10890.91
2023-02-18T00:23:36.253Z,-10918.22
2023-02-18T00:26:43.125Z,-10912.06
2023-02-18T00:29:49.494Z,-10907.56
2023-02-18T00:32:55.912Z,-10912.47
2023-02-18T00:36:03.893Z,-10917.53
2023-02-18T00:39:12.802Z,-10918.06
2023-02-18T00:42:18.946Z,-10910.94
2023-02-18T00:45:25.369Z,-10915.84
2023-02-18T00:48:31.640Z,-10898.47
2023-02-18T00:51:38.121Z,-10892.19
2023-02-18T00:54:46.083Z,-10882.09
2023-02-18T00:57:52.555Z,-10901.28
2023-02-18T01:00:59.196Z,-10887.41
2023-02-18T01:04:05.829Z,-10891.91
2023-02-18T01:07:12.250Z,-10878.03
2023-02-18T01:10:19.916Z,-10892.31
2023-02-18T01:13:27.345Z,-10891.63
2023-02-18T01:16:33.498Z,-10906.16
2023-02-18T01:19:39.575Z,-10891.19
2023-02-18T01:22:46.169Z,-10889.50
2023-02-18T01:25:54.521Z,-10885.19
2023-02-18T01:29:00.865Z,-10883.50
2023-02-18T01:32:07.536Z,-10893.56
2023-02-18T01:35:15.486Z,-10895.69
2023-02-18T01:38:21.782Z,-10894.13
2023-02-18T01:41:29.386Z,-10905.47
2023-02-18T01:44:35.990Z,-10903.66
2023-02-18T01:47:41.963Z,-10903.50
2023-02-18T01:50:52.367Z,-10873.97
2023-02-18T01:54:04.394Z,-10885.31
2023-02-18T01:57:15.011Z,-10891.47
2023-02-18T02:00:22.787Z,-10892.88
2023-02-18T02:03:29.327Z,-10885.47
2023-02-18T02:06:35.885Z,-10895.81
2023-02-18T02:09:44.062Z,-10880.28
2023-02-18T02:13:02.197Z,-10881.97
2023-02-18T02:16:14.300Z,-10869.09
2023-02-18T02:19:56.619Z,-10881.53
2023-02-18T02:23:47.881Z,-10877.06
2023-02-18T02:27:07.066Z,-10887.00
2023-02-18T02:30:48.301Z,-10882.53
2023-02-18T02:34:35.041Z,-10897.06
2023-02-18T02:37:50.694Z,-10898.06
2023-02-18T02:41:03.776Z,-10886.84
2023-02-18T02:44:20.316Z,-10893.72
2023-02-18T02:47:35.078Z,-10886.16
2023-02-18T02:50:47.444Z,-10860.13
2023-02-18T02:53:53.569Z,-10878.31
2023-02-18T02:57:31.644Z,-10867.69
2023-02-18T03:00:51.754Z,-10865.16
2023-02-18T03:04:28.719Z,-10884.75
2023-02-18T03:07:56.445Z,-10890.91
2023-02-18T03:11:07.084Z,-10875.81
2023-02-18T03:14:22.906Z,-10878.03
2023-02-18T03:17:34.031Z,-10868.09
2023-02-18T03:20:44.774Z,-10888.41
2023-02-18T03:23:57.603Z,-10895.69
2023-02-18T03:27:11.109Z,-10892.72
2023-02-18T03:30:25.763Z,-10893.44
2023-02-18T03:33:38.346Z,-10898.19
2023-02-18T03:36:45.586Z,-10882.94
2023-02-18T03:39:57.658Z,-10871.47
2023-02-18T03:43:03.977Z,-10861.81
2023-02-18T03:46:10.438Z,-10879.03
2023-02-18T03:49:17.090Z,-10873.00
2023-02-18T03:52:23.179Z,-10861.81
2023-02-18T03:55:30.767Z,-10872.03
2023-02-18T03:58:36.762Z,-10865.44
2023-02-18T04:01:43.032Z,-10882.53
2023-02-18T04:04:49.229Z,-10890.63
2023-02-18T04:07:55.353Z,-10876.91
2023-02-18T04:11:02.826Z,-10858.59
2023-02-18T04:14:09.635Z,-10854.25
2023-02-18T04:17:15.825Z,-10861.25
2023-02-18T04:20:22.681Z,-10852.88
2023-02-18T04:23:28.997Z,-10866.28
2023-02-18T04:26:36.703Z,-10872.16
2023-02-18T04:29:42.464Z,-10852.59
2023-02-18T04:32:48.694Z,-10857.91
2023-02-18T04:35:55.152Z,-10869.66
2023-02-18T04:39:01.469Z,-10864.34
2023-02-18T04:42:10.537Z,-10869.94
2023-02-18T04:45:17.110Z,-10879.03
2023-02-18T04:48:23.712Z,-10866.16
2023-02-18T04:51:29.922Z,-10861.94
2023-02-18T04:54:36.374Z,-10871.31
2023-02-18T04:57:43.695Z,-10879.72
2023-02-18T05:00:50.200Z,-10868.94
2023-02-18T05:03:56.232Z,-10853.56
2023-02-18T05:07:02.260Z,-10847.53
2023-02-18T05:10:10.040Z,-10838.47
2023-02-18T05:13:18.129Z,-10843.06
2023-02-18T05:16:24.322Z,-10864.34
2023-02-18T05:19:30.338Z,-10860.41
2023-02-18T05:22:36.714Z,-10873.84
2023-02-18T05:25:42.726Z,-10867.84
2023-02-18T05:28:50.232Z,-10881.25
2023-02-18T05:31:56.423Z,-10877.19
2023-02-18T05:35:02.386Z,-10882.38
2023-02-18T05:38:08.914Z,-10892.31
2023-02-18T05:41:15.213Z,-10875.81
2023-02-18T05:44:32.021Z,-10866.00
2023-02-18T05:47:38.352Z,-10869.78
2023-02-18T05:50:44.281Z,-10876.78
2023-02-18T05:53:50.581Z,-10891.75
2023-02-18T05:56:57.322Z,-10888.13
2023-02-18T06:00:06.347Z,-10900.16
2023-02-18T06:03:12.412Z,-10909.94
2023-02-18T06:06:18.731Z,-10901.13
2023-02-18T06:09:24.863Z,-10882.66
2023-02-18T06:12:31.591Z,-10885.59
2023-02-18T06:15:39.681Z,-10901.56
2023-02-18T06:18:46.104Z,-10907.56
2023-02-18T06:21:52.794Z,-10911.91
2023-02-18T06:24:59.267Z,-10916.97
2023-02-18T06:28:05.870Z,-10927.88
2023-02-18T06:31:13.610Z,-10935.28
2023-02-18T06:34:20.309Z,-10932.91
2023-02-18T06:37:26.679Z,-10927.75
2023-02-18T06:40:32.936Z,-10939.34
2023-02-18T06:43:39.662Z,-10934.31
2023-02-18T06:46:47.446Z,-10935.44
2023-02-18T06:49:53.688Z,-10923.13
2023-02-18T06:53:00.438Z,-10928.16
2023-02-18T06:56:06.874Z,-10930.41
2023-02-18T06:59:14.040Z,-10943.84
2023-02-18T07:02:21.809Z,-10950.00
2023-02-18T07:05:27.867Z,-10950.56
2023-02-18T07:08:36.344Z,-10966.81
2023-02-18T07:11:42.553Z,-10978.88
2023-02-18T07:14:48.521Z,-10960.78
2023-02-18T07:17:56.602Z,-10989.94
2023-02-18T07:21:03.169Z,-11001.16
2023-02-18T07:24:09.578Z,-10986.16
2023-02-18T07:27:15.975Z,-11016.88
2023-02-18T07:30:22.965Z,-11010.00
2023-02-18T07:33:30.659Z,-11012.94
2023-02-18T07:36:37.279Z,-11023.88
2023-02-18T07:39:44.403Z,-11019.66
2023-02-18T07:42:50.941Z,-11031.88
2023-02-18T07:45:57.156Z,-11047.72
2023-02-18T07:49:04.934Z,-11068.91
2023-02-18T07:52:11.526Z,-11067.78
2023-02-18T07:55:17.940Z,-11078.03
2023-02-18T07:58:25.694Z,-11094.19
2023-02-18T08:01:31.774Z,-11087.88
2023-02-18T08:04:39.298Z,-11095.03
2023-02-18T08:07:45.956Z,-11091.66
2023-02-18T08:10:54.083Z,-11087.72
2023-02-18T08:14:00.216Z,-11108.94
2023-02-18T08:17:06.424Z,-11112.72
2023-02-18T08:20:14.837Z,-11115.41
2023-02-18T08:23:22.605Z,-11109.06
2023-02-18T08:26:30.735Z,-11093.91
2023-02-18T08:29:37.434Z,-11096.16
2023-02-18T08:32:43.686Z,-11101.22
2023-02-18T08:35:53.337Z,-11113.56
2023-02-18T08:39:00.053Z,-11111.03
2023-02-18T08:42:06.585Z,-11122.28
2023-02-18T08:45:12.991Z,-11125.09
2023-02-18T08:48:20.574Z,-11145.47
2023-02-18T08:51:28.657Z,-11141.53
2023-02-18T08:54:34.608Z,-11159.38
2023-02-18T08:57:40.904Z,-11155.16
2023-02-18T09:00:47.676Z,-11171.19
2023-02-18T09:03:53.988Z,-11178.47
2023-02-18T09:07:01.478Z,-11177.78
2023-02-18T09:10:09.346Z,-11179.03
2023-02-18T09:13:15.679Z,-11187.19
2023-02-18T09:16:23.072Z,-11191.13
2023-02-18T09:19:31.072Z,-11199.84
2023-02-18T09:22:38.765Z,-11215.59
2023-02-18T09:25:45.273Z,-11219.81
2023-02-18T09:28:52.646Z,-11232.19
2023-02-18T09:32:01.640Z,-11244.44
2023-02-18T09:35:08.230Z,-11251.47
2023-02-18T09:38:18.197Z,-11285.81
2023-02-18T09:41:31.470Z,-11267.81
2023-02-18T09:44:43.618Z,-11268.50
2023-02-18T09:47:51.650Z,-11265.13
2023-02-18T09:50:58.003Z,-11265.00
2023-02-18T09:54:06.098Z,-11293.84
2023-02-18T09:57:24.142Z,-11291.59
2023-02-18T10:00:35.220Z,-11305.09
2023-02-18T10:03:43.913Z,-11318.47
2023-02-18T10:06:52.797Z,-11308.75
2023-02-18T10:10:05.251Z,-11299.75
2023-02-18T10:13:15.394Z,-11305.66
2023-02-18T10:16:23.485Z,-11314.25
2023-02-18T10:19:34.795Z,-11326.22
2023-02-18T10:22:41.146Z,-11321.72
2023-02-18T10:25:50.622Z,-11331.56
2023-02-18T10:28:57.287Z,-11325.09
2023-02-18T10:32:14.624Z,-11322.28
2023-02-18T10:35:25.983Z,-11323.25
2023-02-18T10:38:44.904Z,-11323.97
2023-02-18T10:42:02.450Z,-11314.97
2023-02-18T10:45:21.022Z,-11318.75
2023-02-18T10:48:43.844Z,-11327.91
2023-02-18T10:51:54.092Z,-11318.34
2023-02-18T10:55:05.269Z,-11342.00
2023-02-18T10:58:33.709Z,-11356.38
2023-02-18T11:01:40.393Z,-11348.19
2023-02-18T11:04:48.089Z,-11342.69
2023-02-18T11:07:57.952Z,-11332.41
2023-02-18T11:11:14.578Z,-11341.72
2023-02-18T11:14:44.615Z,-11342.00
2023-02-18T11:17:52.850Z,-11343.25
2023-02-18T11:21:00.773Z,-11347.78
2023-02-18T11:24:10.613Z,-11348.34
2023-02-18T11:27:29.678Z,-11340.88
2023-02-18T11:30:40.481Z,-11349.59
2023-02-18T11:33:51.741Z,-11375.66
2023-02-18T11:37:10.841Z,-11382.56
2023-02-18T11:40:24.241Z,-11384.97
2023-02-18T11:43:32.792Z,-11379.75
2023-02-18T11:46:40.360Z,-11383.28
2023-02-18T11:50:01.421Z,-11381.88
2023-02-18T11:53:28.831Z,-11388.06
2023-02-18T11:56:37.231Z,-11385.66
2023-02-18T11:59:44.878Z,-11382.72
2023-02-18T12:02:54.385Z,-11374.69
2023-02-18T12:06:05.998Z,-11372.84
2023-02-18T12:09:22.068Z,-11368.34
2023-02-18T12:12:31.724Z,-11368.19
2023-02-18T12:15:54.610Z,-11360.72
2023-02-18T12:19:21.440Z,-11361.16
2023-02-18T12:22:40.099Z,-11357.06
2023-02-18T12:25:56.304Z,-11363.13
2023-02-18T12:29:17.941Z,-11376.78
2023-02-18T12:32:37.730Z,-11382.00
2023-02-18T12:36:05.605Z,-11390.75
2023-02-18T12:39:18.636Z,-11397.22
2023-02-18T12:42:36.368Z,-11404.41
2023-02-18T12:46:08.665Z,-11400.59
2023-02-18T12:49:34.680Z,-11400.88
2023-02-18T12:52:52.902Z,-11390.03
2023-02-18T12:56:26.222Z,-11384.25
2023-02-18T12:59:58.366Z,-11385.66
2023-02-18T13:03:36.432Z,-11382.72
2023-02-18T13:06:55.220Z,-11380.03
2023-02-18T13:10:30.388Z,-11389.03
2023-02-18T13:13:41.953Z,-11389.34
2023-02-18T13:16:52.226Z,-11391.44
2023-02-18T13:20:04.270Z,-11385.94
2023-02-18T13:23:20.603Z,-11389.34
2023-02-18T13:26:31.280Z,-11384.69
2023-02-18T13:29:46.247Z,-11369.31
2023-02-18T13:33:06.871Z,-11365.66
2023-02-18T13:36:26.682Z,-11388.06
2023-02-18T13:39:34.110Z,-11388.47
2023-02-18T13:42:42.273Z,-11394.81
2023-02-18T13:46:05.061Z,-11398.91
2023-02-18T13:49:14.250Z,-11398.06
2023-02-18T13:52:21.805Z,-11382.28
2023-02-18T13:55:41.180Z,-11385.25
2023-02-18T13:58:51.923Z,-11381.44
2023-02-18T14:02:29.529Z,-11383.56
2023-02-18T14:05:41.647Z,-11363.69
2023-02-18T14:08:48.846Z,-11380.59
2023-02-18T14:11:57.953Z,-11386.22
2023-02-18T14:15:23.594Z,-11380.19
2023-02-18T14:18:57.256Z,-11365.53
2023-02-18T14:22:28.466Z,-11374.97
2023-02-18T14:25:42.038Z,-11368.63
2023-02-18T14:28:56.055Z,-11371.00
2023-02-18T14:32:05.438Z,-11357.50
2023-02-18T14:35:32.025Z,-11366.50
2023-02-18T14:38:49.860Z,-11354.09
2023-02-18T14:42:01.984Z,-11351.00
2023-02-18T14:45:23.396Z,-11341.44
2023-02-18T14:48:56.985Z,-11343.41
2023-02-18T14:52:07.608Z,-11342.84
2023-02-18T14:55:21.787Z,-11345.38
2023-02-18T14:58:33.182Z,-11347.22
2023-02-18T15:01:40.483Z,-11338.06
2023-02-18T15:04:48.139Z,-11337.63
2023-02-18T15:07:59.175Z,-11330.44
2023-02-18T15:11:07.644Z,-11328.75
2023-02-18T15:14:20.208Z,-11327.34
2023-02-18T15:17:28.557Z,-11323.69
2023-02-18T15:20:36.921Z,-11318.91
2023-02-18T15:23:43.568Z,-11314.13
2023-02-18T15:26:52.157Z,-11310.44
2023-02-18T15:30:00.125Z,-11313.28
2023-02-18T15:33:14.380Z,-11305.94
2023-02-18T15:36:22.283Z,-11309.88
2023-02-18T15:39:28.932Z,-11304.53
2023-02-18T15:42:37.605Z,-11306.09
2023-02-18T15:45:45.587Z,-11302.56
2023-02-18T15:48:52.596Z,-11296.66
2023-02-18T15:52:02.070Z,-11291.31
2023-02-18T15:55:15.027Z,-11275.25
2023-02-18T15:58:25.297Z,-11260.19
2023-02-18T16:01:32.262Z,-11254.84
2023-02-18T16:04:41.476Z,-11252.88
2023-02-18T16:07:54.639Z,-11254.56
2023-02-18T16:11:04.868Z,-11252.59
2023-02-18T16:14:25.552Z,-11256.13
2023-02-18T16:17:32.437Z,-11246.28
2023-02-18T16:20:42.052Z,-11239.66
2023-02-18T16:23:58.040Z,-11239.50
2023-02-18T16:27:08.157Z,-11228.81
2023-02-18T16:30:17.992Z,-11221.50
2023-02-18T16:33:24.522Z,-11217.28
2023-02-18T16:36:30.732Z,-11219.41
2023-02-18T16:39:38.647Z,-11228.53
2023-02-18T16:42:45.111Z,-11223.47
2023-02-18T16:45:53.324Z,-11210.41
2023-02-18T16:49:00.388Z,-11187.91
2023-02-18T16:52:09.461Z,-11200.13
2023-02-18T16:55:21.138Z,-11202.38
2023-02-18T16:58:27.794Z,-11197.88
2023-02-18T17:01:38.294Z,-11200.69
2023-02-18T17:04:44.742Z,-11181.00
2023-02-18T17:07:51.205Z,-11183.53
2023-02-18T17:11:00.045Z,-11181.44
2023-02-18T17:14:06.571Z,-11188.03
2023-02-18T17:17:14.766Z,-11178.19
2023-02-18T17:20:21.924Z,-11172.72
2023-02-18T17:23:28.294Z,-11171.31
2023-02-18T17:26:35.974Z,-11172.31
2023-02-18T17:29:42.546Z,-11179.31
2023-02-18T17:32:49.403Z,-11171.47
2023-02-18T17:35:55.651Z,-11182.28
2023-02-18T17:39:02.838Z,-11179.03
2023-02-18T17:45:44.410Z,-11159.09
2023-02-18T17:48:50.784Z,-11158.38
2023-02-18T17:51:58.177Z,-11151.78
2023-02-18T17:55:16.300Z,-11146.56
2023-02-18T17:58:24.123Z,-11153.19
2023-02-18T18:01:30.476Z,-11158.38
2023-02-18T18:04:36.758Z,-11161.06
2023-02-18T18:07:43.043Z,-11156.84
2023-02-18T18:10:52.632Z,-11193.94
2023-02-18T18:14:00.613Z,-11219.81
2023-02-18T18:17:11.399Z,-11230.94
2023-02-18T18:20:18.484Z,-11236.56
2023-02-18T18:23:24.782Z,-11227.13
2023-02-18T18:26:31.679Z,-11213.06
2023-02-18T18:29:39.705Z,-11201.53
2023-02-18T18:32:46.327Z,-11202.66
2023-02-18T18:35:54.403Z,-11234.03
2023-02-18T18:39:01.006Z,-11243.59
2023-02-18T18:42:07.807Z,-11247.41
2023-02-18T18:45:21.519Z,-11254.72
2023-02-18T18:48:27.755Z,-11245.72
2023-02-18T18:51:34.355Z,-11248.09
2023-02-18T18:54:41.410Z,-11250.63
2023-02-18T18:57:48.367Z,-11243.47
2023-02-18T19:00:58.797Z,-11228.69
2023-02-18T19:04:05.616Z,-11211.09
2023-02-18T19:07:12.149Z,-11229.53
2023-02-18T19:10:19.596Z,-11200.41
2023-02-18T19:13:28.597Z,-11184.94
2023-02-18T19:16:39.580Z,-11176.66
2023-02-18T19:19:45.893Z,-11173.28
2023-02-18T19:22:52.346Z,-11172.59
2023-02-18T19:25:59.286Z,-11179.19
2023-02-18T19:29:05.986Z,-11174.25
2023-02-18T19:32:13.793Z,-11165.56
2023-02-18T19:35:20.814Z,-11163.03
2023-02-18T19:38:27.068Z,-11155.16
2023-02-18T19:41:33.695Z,-11148.69
2023-02-18T19:44:40.313Z,-11139.41
2023-02-18T19:47:48.907Z,-11133.09
2023-02-18T19:50:55.538Z,-11129.03
2023-02-18T19:54:02.081Z,-11122.41
2023-02-18T19:57:08.917Z,-11120.88
2023-02-18T20:00:17.941Z,-11119.03
2023-02-18T20:03:25.664Z,-11117.50
2023-02-18T20:06:32.035Z,-11109.50
2023-02-18T20:09:38.397Z,-11110.19
2023-02-18T20:12:45.311Z,-11115.13
2023-02-18T20:15:51.948Z,-11117.50
2023-02-18T20:19:00.020Z,-11111.31
2023-02-18T20:22:07.532Z,-11109.34
2023-02-18T20:25:14.065Z,-11103.31
2023-02-18T20:28:20.432Z,-11103.19
2023-02-18T20:31:27.188Z,-11109.06
2023-02-18T20:34:35.156Z,-11106.00
2023-02-18T20:37:41.769Z,-11097.41
2023-02-18T20:40:48.388Z,-11099.25
2023-02-18T20:43:54.630Z,-11101.78
2023-02-18T20:47:01.029Z,-11095.88
2023-02-18T20:50:09.006Z,-11102.19
2023-02-18T20:53:15.413Z,-11097.84
2023-02-18T20:56:22.875Z,-11096.16
2023-02-18T20:59:30.209Z,-11097.28
2023-02-18T21:02:36.621Z,-11096.72
2023-02-18T21:05:44.027Z,-11090.81
2023-02-18T21:08:54.360Z,-11090.25
2023-02-18T21:12:00.239Z,-11090.97
2023-02-18T21:15:06.815Z,-11089.41
2023-02-18T21:18:12.964Z,-11083.50
2023-02-18T21:21:23.135Z,-11083.94
2023-02-18T21:24:29.512Z,-11088.72
2023-02-18T21:27:36.055Z,-11086.19
2023-02-18T21:30:44.173Z,-11087.16
2023-02-18T21:33:50.770Z,-11083.50
2023-02-18T21:36:58.537Z,-11085.19
2023-02-18T21:40:05.255Z,-11079.88
2023-02-18T21:43:12.474Z,-11078.31
2023-02-18T21:46:21.738Z,-11077.91
2023-02-18T21:49:27.953Z,-11073.97
2023-02-18T21:52:35.597Z,-11074.41
2023-02-18T21:55:42.670Z,-11066.38
2023-02-18T21:58:49.785Z,-11072.00
2023-02-18T22:01:57.409Z,-11072.84
2023-02-18T22:05:08.206Z,-11071.16
2023-02-18T22:08:16.006Z,-11062.31
2023-02-18T22:11:22.261Z,-11063.44
2023-02-18T22:14:28.790Z,-11063.59
2023-02-18T22:17:35.130Z,-11060.63
2023-02-18T22:20:41.609Z,-11057.41
2023-02-18T22:23:49.561Z,-11057.13
2023-02-18T22:26:56.026Z,-11056.56
2023-02-18T22:30:02.726Z,-11054.03
2023-02-18T22:33:09.340Z,-11056.16
2023-02-18T22:36:16.133Z,-11052.78
2023-02-18T22:39:24.499Z,-11053.19
2023-02-18T22:42:31.353Z,-11040.28
2023-02-18T22:45:37.736Z,-11028.38
2023-02-18T22:48:44.764Z,-11029.91
2023-02-18T22:51:53.746Z,-11042.81
2023-02-18T22:55:01.322Z,-11035.66
2023-02-18T22:58:07.573Z,-11039.88
2023-02-18T23:01:21.902Z,-11040.72
2023-02-18T23:04:28.610Z,-11034.13
2023-02-18T23:07:35.102Z,-11037.22
2023-02-18T23:10:42.844Z,-11035.53
2023-02-18T23:14:10.556Z,-11026.97
2023-02-18T23:17:18.076Z,-11021.78
2023-02-18T23:20:38.003Z,-11017.28
2023-02-18T23:23:44.874Z,-11031.31
2023-02-18T23:26:52.687Z,-11031.03
2023-02-18T23:29:59.125Z,-11027.66
2023-02-18T23:33:05.396Z,-11028.09
2023-02-18T23:36:14.041Z,-11010.69
2023-02-18T23:39:22.750Z,-11009.16
2023-02-18T23:42:30.594Z,-11032.16
2023-02-18T23:45:37.249Z,-11026.13
2023-02-18T23:48:43.888Z,-11020.94
2023-02-18T23:51:50.547Z,-11020.09
2023-02-18T23:54:56.892Z,-11021.91
2023-02-18T23:58:04.435Z,-11012.09
